createdAt,value
2023-05-06T00:00:34.228Z,19.19
2023-05-06T00:03:13.807Z,19.19
2023-05-06T00:05:42.435Z,19.18
2023-05-06T00:08:09.629Z,19.18
2023-05-06T00:10:37.139Z,19.18
2023-05-06T00:13:04.646Z,19.18
2023-05-06T00:15:32.489Z,19.18
2023-05-06T00:18:00.535Z,19.18
2023-05-06T00:20:29.005Z,19.17
2023-05-06T00:22:56.342Z,19.17
2023-05-06T00:25:23.839Z,19.17
2023-05-06T00:27:51.300Z,19.15
2023-05-06T00:30:18.872Z,19.16
2023-05-06T00:32:46.201Z,19.15
2023-05-06T00:35:13.793Z,19.15
2023-05-06T00:37:41.066Z,19.15
2023-05-06T00:40:09.816Z,19.15
2023-05-06T00:42:37.016Z,19.14
2023-05-06T00:45:07.194Z,19.14
2023-05-06T00:47:34.735Z,19.14
2023-05-06T00:50:02.980Z,19.13
2023-05-06T00:52:30.510Z,19.14
2023-05-06T00:54:58.235Z,19.13
2023-05-06T00:57:25.628Z,19.14
2023-05-06T00:59:54.441Z,19.13
2023-05-06T01:02:21.943Z,19.11
2023-05-06T01:04:51.688Z,19.12
2023-05-06T01:07:25.183Z,19.11
2023-05-06T01:10:01.517Z,19.12
2023-05-06T01:12:30.879Z,19.10
2023-05-06T01:15:33.185Z,19.11
2023-05-06T01:18:04.304Z,19.11
2023-05-06T01:20:33.601Z,19.10
2023-05-06T01:23:01.570Z,19.10
2023-05-06T01:25:30.147Z,19.09
2023-05-06T01:27:58.310Z,19.10
2023-05-06T01:30:30.706Z,19.10
2023-05-06T01:33:07.684Z,19.09
2023-05-06T01:35:44.284Z,19.10
2023-05-06T01:38:11.446Z,19.09
2023-05-06T01:40:41.578Z,19.09
2023-05-06T01:43:11.860Z,19.09
2023-05-06T01:45:40.593Z,19.08
2023-05-06T01:48:09.510Z,19.08
2023-05-06T01:50:37.832Z,19.09
2023-05-06T01:53:05.084Z,19.09
2023-05-06T01:55:32.647Z,19.06
2023-05-06T01:57:59.890Z,19.06
2023-05-06T02:00:27.439Z,19.07
2023-05-06T02:02:54.753Z,19.06
2023-05-06T02:05:22.417Z,19.05
2023-05-06T02:07:49.628Z,19.04
2023-05-06T02:10:17.375Z,19.05
2023-05-06T02:12:44.716Z,19.05
2023-05-06T02:15:12.639Z,19.05
2023-05-06T02:17:39.930Z,19.03
2023-05-06T02:20:09.732Z,19.04
2023-05-06T02:22:36.979Z,19.04
2023-05-06T02:25:04.831Z,19.04
2023-05-06T02:27:32.071Z,19.04
2023-05-06T02:29:59.553Z,19.02
2023-05-06T02:32:27.346Z,19.02
2023-05-06T02:34:54.906Z,19.03
2023-05-06T02:37:22.154Z,19.03
2023-05-06T02:39:49.666Z,19.02
2023-05-06T02:42:17.120Z,19.02
2023-05-06T02:44:45.060Z,19.01
2023-05-06T02:47:12.403Z,19.02
2023-05-06T02:49:39.889Z,19.02
2023-05-06T02:52:07.184Z,19.01
2023-05-06T02:54:34.743Z,19.00
2023-05-06T02:57:02.306Z,19.00
2023-05-06T02:59:29.826Z,19.01
2023-05-06T03:01:57.005Z,19.01
2023-05-06T03:04:24.568Z,19.00
2023-05-06T03:06:51.805Z,18.99
2023-05-06T03:09:19.387Z,19.00
2023-05-06T03:11:47.050Z,18.99
2023-05-06T03:14:14.792Z,18.99
2023-05-06T03:16:42.039Z,19.00
2023-05-06T03:19:09.634Z,18.99
2023-05-06T03:21:36.984Z,18.98
2023-05-06T03:24:05.535Z,18.98
2023-05-06T03:26:32.789Z,18.99
2023-05-06T03:29:00.329Z,18.98
2023-05-06T03:31:27.611Z,18.97
2023-05-06T03:33:55.452Z,18.97
2023-05-06T03:36:25.226Z,18.97
2023-05-06T03:38:52.744Z,18.97
2023-05-06T03:41:21.310Z,18.98
2023-05-06T03:43:48.843Z,18.98
2023-05-06T03:46:16.140Z,18.97
2023-05-06T03:48:43.708Z,18.97
2023-05-06T03:51:10.918Z,18.97
2023-05-06T03:53:38.579Z,18.97
2023-05-06T03:56:06.304Z,18.97
2023-05-06T03:58:33.811Z,18.96
2023-05-06T04:01:01.266Z,18.97
2023-05-06T04:03:28.846Z,18.96
2023-05-06T04:05:56.250Z,18.96
2023-05-06T04:08:23.897Z,18.96
2023-05-06T04:10:51.095Z,18.97
2023-05-06T04:13:19.628Z,18.97
2023-05-06T04:15:48.259Z,18.96
2023-05-06T04:18:19.934Z,18.96
2023-05-06T04:20:48.193Z,18.96
2023-05-06T04:23:16.155Z,18.95
2023-05-06T04:25:48.666Z,18.95
2023-05-06T04:28:17.576Z,18.95
2023-05-06T04:30:46.260Z,18.95
2023-05-06T04:33:13.897Z,18.95
2023-05-06T04:35:41.379Z,18.95
2023-05-06T04:38:09.824Z,18.95
2023-05-06T04:40:39.305Z,18.94
2023-05-06T04:43:06.951Z,18.95
2023-05-06T04:45:34.544Z,18.95
2023-05-06T04:48:02.538Z,18.96
2023-05-06T04:50:29.875Z,18.96
2023-05-06T04:52:57.391Z,18.96
2023-05-06T04:55:24.622Z,18.96
2023-05-06T04:57:52.218Z,18.95
2023-05-06T05:00:20.041Z,18.94
2023-05-06T05:02:47.589Z,18.95
2023-05-06T05:05:14.850Z,18.95
2023-05-06T05:07:42.375Z,18.95
2023-05-06T05:10:10.359Z,18.96
2023-05-06T05:12:38.054Z,18.96
2023-05-06T05:15:05.873Z,18.96
2023-05-06T05:17:33.429Z,18.96
2023-05-06T05:20:00.839Z,18.97
2023-05-06T05:22:28.385Z,18.97
2023-05-06T05:24:55.875Z,18.97
2023-05-06T05:27:23.909Z,18.98
2023-05-06T05:29:51.172Z,18.98
2023-05-06T05:32:20.156Z,18.98
2023-05-06T05:34:47.570Z,18.98
2023-05-06T05:37:15.154Z,18.98
2023-05-06T05:39:42.350Z,19.00
2023-05-06T05:42:10.039Z,19.00
2023-05-06T05:44:37.248Z,19.00
2023-05-06T05:47:04.793Z,19.02
2023-05-06T05:49:32.385Z,19.03
2023-05-06T05:52:00.333Z,19.03
2023-05-06T05:54:27.583Z,19.04
2023-05-06T05:56:55.115Z,19.04
2023-05-06T05:59:22.395Z,19.04
2023-05-06T06:01:49.889Z,19.04
2023-05-06T06:04:17.111Z,19.05
2023-05-06T06:06:44.605Z,19.05
2023-05-06T06:09:12.029Z,19.06
2023-05-06T06:11:39.564Z,19.09
2023-05-06T06:14:06.839Z,19.09
2023-05-06T06:16:36.180Z,19.08
2023-05-06T06:19:03.486Z,19.11
2023-05-06T06:21:31.043Z,19.11
2023-05-06T06:23:58.344Z,19.11
2023-05-06T06:26:25.950Z,19.12
2023-05-06T06:28:53.175Z,19.13
2023-05-06T06:31:21.034Z,19.13
2023-05-06T06:33:48.295Z,19.12
2023-05-06T06:36:15.900Z,19.12
2023-05-06T06:38:43.278Z,19.12
2023-05-06T06:41:10.801Z,19.14
2023-05-06T06:43:37.961Z,19.14
2023-05-06T06:46:05.556Z,19.15
2023-05-06T06:48:32.915Z,19.16
2023-05-06T06:51:00.515Z,19.16
2023-05-06T06:53:28.253Z,19.17
2023-05-06T06:55:55.892Z,19.17
2023-05-06T06:58:23.423Z,19.17
2023-05-06T07:00:51.115Z,19.18
2023-05-06T07:03:19.503Z,19.18
2023-05-06T07:05:47.430Z,19.20
2023-05-06T07:08:15.686Z,19.18
2023-05-06T07:10:43.621Z,19.20
2023-05-06T07:13:11.347Z,19.20
2023-05-06T07:15:39.011Z,19.21
2023-05-06T07:18:06.611Z,19.21
2023-05-06T07:20:34.175Z,19.22
2023-05-06T07:23:01.486Z,19.22
2023-05-06T07:25:31.217Z,19.24
2023-05-06T07:27:58.674Z,19.25
2023-05-06T07:30:26.353Z,19.27
2023-05-06T07:32:53.649Z,19.29
2023-05-06T07:35:21.276Z,19.29
2023-05-06T07:37:49.398Z,19.30
2023-05-06T07:40:17.123Z,19.31
2023-05-06T07:42:44.772Z,19.32
2023-05-06T07:45:15.405Z,19.35
2023-05-06T07:47:42.927Z,19.35
2023-05-06T07:50:11.084Z,19.36
2023-05-06T07:52:38.407Z,19.36
2023-05-06T07:55:09.172Z,19.38
2023-05-06T07:57:37.248Z,19.37
2023-05-06T08:00:06.055Z,19.37
2023-05-06T08:02:33.444Z,19.39
2023-05-06T08:05:01.068Z,19.40
2023-05-06T08:07:28.301Z,19.40
2023-05-06T08:09:56.573Z,19.40
2023-05-06T08:12:23.836Z,19.40
2023-05-06T08:14:52.603Z,19.41
2023-05-06T08:17:19.936Z,19.42
2023-05-06T08:19:47.416Z,19.43
2023-05-06T08:22:16.191Z,19.43
2023-05-06T08:24:43.711Z,19.43
2023-05-06T08:27:10.946Z,19.44
2023-05-06T08:29:38.994Z,19.44
2023-05-06T08:32:06.720Z,19.44
2023-05-06T08:34:34.961Z,19.44
2023-05-06T08:37:02.486Z,19.44
2023-05-06T08:39:30.861Z,19.45
2023-05-06T08:42:01.928Z,19.46
2023-05-06T08:44:29.674Z,19.46
2023-05-06T08:46:57.272Z,19.47
2023-05-06T08:49:25.106Z,19.49
2023-05-06T08:51:52.611Z,19.49
2023-05-06T08:54:20.218Z,19.51
2023-05-06T08:56:53.110Z,19.52
2023-05-06T08:59:25.420Z,19.53
2023-05-06T09:01:53.668Z,19.55
2023-05-06T09:04:21.059Z,19.54
2023-05-06T09:06:48.579Z,19.55
2023-05-06T09:09:16.757Z,19.57
2023-05-06T09:11:44.376Z,19.57
2023-05-06T09:14:17.188Z,19.58
2023-05-06T09:16:46.993Z,19.58
2023-05-06T09:19:15.067Z,19.58
2023-05-06T09:21:44.971Z,19.60
2023-05-06T09:24:15.241Z,19.60
2023-05-06T09:26:45.123Z,19.61
2023-05-06T09:29:12.729Z,19.62
2023-05-06T09:31:45.316Z,19.61
2023-05-06T09:34:14.218Z,19.59
2023-05-06T09:36:42.111Z,19.57
2023-05-06T09:39:09.864Z,19.54
2023-05-06T09:41:37.699Z,19.55
2023-05-06T09:44:06.031Z,19.55
2023-05-06T09:46:33.898Z,19.53
2023-05-06T09:49:01.661Z,19.52
2023-05-06T09:51:30.992Z,19.50
2023-05-06T09:54:00.751Z,19.51
2023-05-06T09:56:30.438Z,19.51
2023-05-06T09:59:01.224Z,19.52
2023-05-06T10:01:36.964Z,19.51
2023-05-06T10:04:09.061Z,19.51
2023-05-06T10:06:39.748Z,19.52
2023-05-06T10:09:08.296Z,19.50
2023-05-06T10:11:36.332Z,19.49
2023-05-06T10:14:04.951Z,19.50
2023-05-06T10:16:35.748Z,19.48
2023-05-06T10:19:06.728Z,19.47
2023-05-06T10:21:38.024Z,19.48
2023-05-06T10:24:13.378Z,19.46
2023-05-06T10:26:42.552Z,19.45
2023-05-06T10:29:11.352Z,19.45
2023-05-06T10:31:44.947Z,19.43
2023-05-06T10:34:12.373Z,19.43
2023-05-06T10:36:43.048Z,19.43
2023-05-06T10:39:10.824Z,19.45
2023-05-06T10:41:38.423Z,19.46
2023-05-06T10:44:06.977Z,19.47
2023-05-06T10:47:01.146Z,19.48
2023-05-06T10:49:29.141Z,19.47
2023-05-06T10:52:17.199Z,19.46
2023-05-06T10:54:50.211Z,19.46
2023-05-06T10:57:17.898Z,19.47
2023-05-06T10:59:46.972Z,19.46
2023-05-06T11:02:19.885Z,19.44
2023-05-06T11:05:00.836Z,19.45
2023-05-06T11:07:28.640Z,19.43
2023-05-06T11:09:59.346Z,19.41
2023-05-06T11:12:49.422Z,19.40
2023-05-06T11:15:40.012Z,19.39
2023-05-06T11:18:33.889Z,19.38
2023-05-06T11:21:01.235Z,19.38
2023-05-06T11:23:49.309Z,19.37
2023-05-06T11:26:16.833Z,19.37
2023-05-06T11:28:50.128Z,19.35
2023-05-06T11:31:17.936Z,19.36
2023-05-06T11:33:47.602Z,19.33
2023-05-06T11:36:17.157Z,19.33
2023-05-06T11:38:49.697Z,19.32
2023-05-06T11:41:18.608Z,19.32
2023-05-06T11:43:50.577Z,19.32
2023-05-06T11:46:22.417Z,19.30
2023-05-06T11:48:50.715Z,19.30
2023-05-06T11:51:22.253Z,19.30
2023-05-06T11:53:49.731Z,19.29
2023-05-06T11:56:17.226Z,19.30
2023-05-06T11:58:46.571Z,19.28
2023-05-06T12:01:13.838Z,19.28
2023-05-06T12:03:41.697Z,19.27
2023-05-06T12:06:09.109Z,19.26
2023-05-06T12:08:37.520Z,19.27
2023-05-06T12:11:07.299Z,19.27
2023-05-06T12:13:40.624Z,19.28
2023-05-06T12:16:08.476Z,19.29
2023-05-06T12:18:36.408Z,19.28
2023-05-06T12:21:04.127Z,19.29
2023-05-06T12:23:31.818Z,19.28
2023-05-06T12:26:04.023Z,19.27
2023-05-06T12:28:32.958Z,19.26
2023-05-06T12:31:17.439Z,19.25
2023-05-06T12:33:46.214Z,19.24
2023-05-06T12:36:13.801Z,19.22
2023-05-06T12:38:50.805Z,19.22
2023-05-06T12:41:22.255Z,19.21
2023-05-06T12:43:49.713Z,19.21
2023-05-06T12:46:17.250Z,19.21
2023-05-06T12:49:01.717Z,19.21
2023-05-06T12:51:30.804Z,19.19
2023-05-06T12:53:58.133Z,19.19
2023-05-06T12:56:26.219Z,19.19
2023-05-06T12:59:01.255Z,19.19
2023-05-06T13:01:28.946Z,19.17
2023-05-06T13:03:57.558Z,19.17
2023-05-06T13:06:25.298Z,19.17
2023-05-06T13:08:52.649Z,19.17
2023-05-06T13:11:22.126Z,19.17
2023-05-06T13:13:49.464Z,19.17
2023-05-06T13:16:17.278Z,19.16
2023-05-06T13:18:44.731Z,19.15
2023-05-06T13:21:14.010Z,19.16
2023-05-06T13:23:46.786Z,19.15
2023-05-06T13:26:14.747Z,19.15
2023-05-06T13:28:42.131Z,19.14
2023-05-06T13:31:09.656Z,19.14
2023-05-06T13:33:37.106Z,19.15
2023-05-06T13:36:05.611Z,19.14
2023-05-06T13:38:33.065Z,19.14
2023-05-06T13:41:00.772Z,19.14
2023-05-06T13:43:28.072Z,19.15
2023-05-06T13:45:55.835Z,19.17
2023-05-06T13:48:23.151Z,19.18
2023-05-06T13:50:50.675Z,19.18
2023-05-06T13:53:18.422Z,19.18
2023-05-06T13:55:46.893Z,19.17
2023-05-06T13:58:14.149Z,19.17
2023-05-06T14:00:41.571Z,19.17
2023-05-06T14:03:09.104Z,19.16
2023-05-06T14:05:36.695Z,19.15
2023-05-06T14:08:04.093Z,19.15
2023-05-06T14:10:31.579Z,19.15
2023-05-06T14:12:58.970Z,19.16
2023-05-06T14:15:26.547Z,19.17
2023-05-06T14:17:54.169Z,19.17
2023-05-06T14:20:22.147Z,19.17
2023-05-06T14:22:49.488Z,19.17
2023-05-06T14:25:17.070Z,19.16
2023-05-06T14:27:45.423Z,19.16
2023-05-06T14:30:13.288Z,19.16
2023-05-06T14:32:40.921Z,19.17
2023-05-06T14:35:09.474Z,19.17
2023-05-06T14:37:37.764Z,19.17
2023-05-06T14:40:06.548Z,19.18
2023-05-06T14:42:35.706Z,19.19
2023-05-06T14:45:03.912Z,19.18
2023-05-06T14:47:31.298Z,19.20
2023-05-06T14:49:58.915Z,19.21
2023-05-06T14:52:26.220Z,19.22
2023-05-06T14:54:53.709Z,19.21
2023-05-06T14:57:21.687Z,19.22
2023-05-06T14:59:50.656Z,19.21
2023-05-06T15:02:18.079Z,19.23
2023-05-06T15:04:46.017Z,19.25
2023-05-06T15:07:13.358Z,19.26
2023-05-06T15:09:43.849Z,19.28
2023-05-06T15:12:11.418Z,19.27
2023-05-06T15:14:39.610Z,19.26
2023-05-06T15:17:07.213Z,19.26
2023-05-06T15:19:35.300Z,19.28
2023-05-06T15:22:03.408Z,19.26
2023-05-06T15:24:30.921Z,19.25
2023-05-06T15:26:58.243Z,19.25
2023-05-06T15:29:26.216Z,19.26
2023-05-06T15:31:53.518Z,19.26
2023-05-06T15:34:21.312Z,19.26
2023-05-06T15:36:52.907Z,19.25
2023-05-06T15:39:20.894Z,19.25
2023-05-06T15:41:48.432Z,19.23
2023-05-06T15:44:16.239Z,19.25
2023-05-06T15:46:43.941Z,19.25
2023-05-06T15:51:41.808Z,19.25
2023-05-06T15:54:09.349Z,19.24
2023-05-06T15:56:40.695Z,19.24
2023-05-06T15:59:09.133Z,19.24
2023-05-06T16:02:16.632Z,19.24
2023-05-06T16:04:24.908Z,19.23
2023-05-06T16:06:52.386Z,19.23
2023-05-06T16:09:19.967Z,19.23
2023-05-06T16:11:47.504Z,19.23
2023-05-06T16:14:15.068Z,19.23
2023-05-06T16:16:42.400Z,19.22
2023-05-06T16:19:12.463Z,19.22
2023-05-06T16:21:39.802Z,19.22
2023-05-06T16:24:07.395Z,19.22
2023-05-06T16:26:34.658Z,19.21
2023-05-06T16:29:02.195Z,19.20
2023-05-06T16:31:29.670Z,19.20
2023-05-06T16:33:57.578Z,19.20
2023-05-06T16:36:24.975Z,19.21
2023-05-06T16:38:52.713Z,19.20
2023-05-06T16:41:20.775Z,19.21
2023-05-06T16:43:48.401Z,19.20
2023-05-06T16:46:15.749Z,19.21
2023-05-06T16:48:43.413Z,19.21
2023-05-06T16:51:12.252Z,19.21
2023-05-06T16:53:40.261Z,19.21
2023-05-06T16:56:07.709Z,19.20
2023-05-06T16:58:35.663Z,19.20
2023-05-06T17:01:03.084Z,19.19
2023-05-06T17:03:31.294Z,19.20
2023-05-06T17:05:58.659Z,19.20
2023-05-06T17:08:26.942Z,19.19
2023-05-06T17:10:54.435Z,19.18
2023-05-06T17:13:22.003Z,19.18
2023-05-06T17:15:49.322Z,19.17
2023-05-06T17:18:16.893Z,19.17
2023-05-06T17:20:54.901Z,19.17
2023-05-06T17:23:24.748Z,19.17
2023-05-06T17:25:51.989Z,19.17
2023-05-06T17:28:19.520Z,19.15
2023-05-06T17:30:46.844Z,19.15
2023-05-06T17:33:14.462Z,19.15
2023-05-06T17:35:41.745Z,19.15
2023-05-06T17:38:11.822Z,19.15
2023-05-06T17:40:39.500Z,19.16
2023-05-06T17:43:07.414Z,19.15
2023-05-06T17:45:34.776Z,19.14
2023-05-06T17:48:02.508Z,19.16
2023-05-06T17:50:30.095Z,19.15
2023-05-06T17:52:57.722Z,19.14
2023-05-06T17:55:25.014Z,19.16
2023-05-06T17:57:53.429Z,19.16
2023-05-06T18:00:21.530Z,19.16
2023-05-06T18:02:49.155Z,19.17
2023-05-06T18:05:17.286Z,19.17
2023-05-06T18:07:46.313Z,19.19
2023-05-06T18:10:14.153Z,19.20
2023-05-06T18:12:41.832Z,19.20
2023-05-06T18:15:09.738Z,19.23
2023-05-06T18:17:38.012Z,19.25
2023-05-06T18:20:06.662Z,19.25
2023-05-06T18:22:34.867Z,19.26
2023-05-06T18:25:04.343Z,19.27
2023-05-06T18:27:32.438Z,19.29
2023-05-06T18:29:59.844Z,19.31
2023-05-06T18:32:27.463Z,19.32
2023-05-06T18:34:55.142Z,19.33
2023-05-06T18:37:22.877Z,19.35
2023-05-06T18:39:50.209Z,19.36
2023-05-06T18:42:17.968Z,19.38
2023-05-06T18:44:45.348Z,19.39
2023-05-06T18:47:13.074Z,19.42
2023-05-06T18:49:40.395Z,19.43
2023-05-06T18:52:07.978Z,19.44
2023-05-06T18:54:35.411Z,19.43
2023-05-06T18:57:03.594Z,19.45
2023-05-06T18:59:30.956Z,19.47
2023-05-06T19:01:58.586Z,19.46
2023-05-06T19:04:26.132Z,19.46
2023-05-06T19:06:53.778Z,19.47
2023-05-06T19:09:21.416Z,19.47
2023-05-06T19:11:48.978Z,19.46
2023-05-06T19:14:16.467Z,19.48
2023-05-06T19:16:44.266Z,19.47
2023-05-06T19:19:11.691Z,19.47
2023-05-06T19:21:39.342Z,19.48
2023-05-06T19:24:07.216Z,19.47
2023-05-06T19:26:34.835Z,19.48
2023-05-06T19:29:02.355Z,19.50
2023-05-06T19:31:30.186Z,19.50
2023-05-06T19:33:57.636Z,19.50
2023-05-06T19:36:25.219Z,19.49
2023-05-06T19:38:52.458Z,19.49
2023-05-06T19:41:19.978Z,19.49
2023-05-06T19:43:47.265Z,19.51
2023-05-06T19:46:16.123Z,19.51
2023-05-06T19:48:43.423Z,19.51
2023-05-06T19:51:11.094Z,19.51
2023-05-06T19:53:38.780Z,19.52
2023-05-06T19:56:11.623Z,19.52
2023-05-06T19:58:39.536Z,19.51
2023-05-06T20:01:07.143Z,19.51
2023-05-06T20:03:35.766Z,19.50
2023-05-06T20:06:04.132Z,19.51
2023-05-06T20:08:31.530Z,19.50
2023-05-06T20:10:59.672Z,19.52
2023-05-06T20:13:27.291Z,19.51
2023-05-06T20:15:55.712Z,19.52
2023-05-06T20:18:23.350Z,19.52
2023-05-06T20:20:51.233Z,19.52
2023-05-06T20:23:18.533Z,19.52
2023-05-06T20:25:46.247Z,19.51
2023-05-06T20:28:13.700Z,19.51
2023-05-06T20:30:41.345Z,19.50
2023-05-06T20:33:09.711Z,19.52
2023-05-06T20:35:40.363Z,19.52
2023-05-06T20:38:09.378Z,19.51
2023-05-06T20:40:37.564Z,19.52
2023-05-06T20:43:04.882Z,19.51
2023-05-06T20:45:32.545Z,19.51
2023-05-06T20:47:59.912Z,19.51
2023-05-06T20:50:29.498Z,19.51
2023-05-06T20:52:57.067Z,19.50
2023-05-06T20:55:25.732Z,19.50
2023-05-06T20:57:54.157Z,19.51
2023-05-06T21:00:22.153Z,19.50
2023-05-06T21:02:49.575Z,19.49
2023-05-06T21:05:17.218Z,19.48
2023-05-06T21:07:44.553Z,19.47
2023-05-06T21:10:12.358Z,19.47
2023-05-06T21:12:41.696Z,19.48
2023-05-06T21:15:09.974Z,19.46
2023-05-06T21:17:37.384Z,19.46
2023-05-06T21:20:06.317Z,19.47
2023-05-06T21:22:33.748Z,19.46
2023-05-06T21:25:01.311Z,19.46
2023-05-06T21:27:28.580Z,19.45
2023-05-06T21:29:57.822Z,19.43
2023-05-06T21:32:25.371Z,19.43
2023-05-06T21:34:52.900Z,19.45
2023-05-06T21:37:20.390Z,19.45
2023-05-06T21:39:47.895Z,19.44
2023-05-06T21:42:15.117Z,19.42
2023-05-06T21:44:42.598Z,19.43
2023-05-06T21:47:09.822Z,19.42
2023-05-06T21:49:37.337Z,19.42
2023-05-06T21:52:07.775Z,19.41
2023-05-06T21:54:35.432Z,19.41
2023-05-06T21:57:02.729Z,19.40
2023-05-06T21:59:30.261Z,19.40
2023-05-06T22:01:57.535Z,19.40
2023-05-06T22:04:26.318Z,19.39
2023-05-06T22:06:53.608Z,19.40
2023-05-06T22:09:21.395Z,19.37
2023-05-06T22:11:49.235Z,19.38
2023-05-06T22:14:18.301Z,19.38
2023-05-06T22:16:47.245Z,19.37
2023-05-06T22:19:14.845Z,19.37
2023-05-06T22:21:42.293Z,19.36
2023-05-06T22:24:09.813Z,19.37
2023-05-06T22:26:37.102Z,19.36
2023-05-06T22:29:04.652Z,19.35
2023-05-06T22:31:32.079Z,19.35
2023-05-06T22:34:04.343Z,19.33
2023-05-06T22:36:33.576Z,19.35
2023-05-06T22:39:01.917Z,19.35
2023-05-06T22:41:30.441Z,19.35
2023-05-06T22:43:59.634Z,19.33
2023-05-06T22:46:27.937Z,19.32
2023-05-06T22:48:55.745Z,19.32
2023-05-06T22:51:23.231Z,19.32
2023-05-06T22:53:50.920Z,19.31
2023-05-06T22:56:19.895Z,19.31
2023-05-06T22:58:47.406Z,19.30
2023-05-06T23:01:14.833Z,19.29
2023-05-06T23:03:42.533Z,19.30
2023-05-06T23:06:11.303Z,19.29
2023-05-06T23:08:38.904Z,19.28
2023-05-06T23:11:06.285Z,19.29
2023-05-06T23:13:36.378Z,19.28
2023-05-06T23:16:03.871Z,19.27
2023-05-06T23:18:31.416Z,19.27
2023-05-06T23:20:58.716Z,19.27
2023-05-06T23:23:26.829Z,19.27
2023-05-06T23:25:54.114Z,19.26
2023-05-06T23:28:21.670Z,19.26
2023-05-06T23:30:49.020Z,19.25
2023-05-06T23:33:17.236Z,19.26
2023-05-06T23:35:44.576Z,19.25
2023-05-06T23:38:12.679Z,19.25
2023-05-06T23:40:39.995Z,19.25
2023-05-06T23:43:09.750Z,19.26
2023-05-06T23:45:37.853Z,19.23
2023-05-06T23:48:05.895Z,19.23
2023-05-06T23:50:33.272Z,19.23
2023-05-06T23:53:01.135Z,19.23
2023-05-06T23:55:29.257Z,19.22
2023-05-06T23:57:56.878Z,19.22
